Terminal Aerodrome Forecast
Issued by NWS Brownsville, TX

Home | Current Version | Previous Version | Text Only | Print | Product List | Glossary On
Versions: 1 2 3 4 5 6 7 8 9 10 11 12 13 14 15 16
000
FTUS44 KBRO 021120
TAFBRO
TAF
KBRO 021120Z 0212/0312 00000KT P6SM FEW035 BKN250
     FM021500 VRB04KT P6SM VCSH SCT020 BKN040
     FM021800 13008KT P6SM VCTS SCT030 BKN050CB
     FM030000 13010KT P6SM BKN250=

USA.gov is the U.S. government's official web portal to all federal, state and local government web resources and services.